Terminal Aerodrome Forecast
Issued by NWS Medford, OR

Home | Current Version | Previous Version | Text Only | Print | Product List | Glossary On
Versions: 1 2 3 4 5 6 7 8 9 10 11 12 13 14 15
000
FTUS46 KMFR 271140
TAFMFR
TAF
KMFR 271140Z 2712/2812 35002KT 3SM -SHRA BR OVC005
     FM271700 00000KT 5SM -SHRA BR SCT008 OVC015
     FM272100 32008KT P6SM -SHRA VCTS SCT025 OVC040CB
     FM280400 VRB03KT P6SM -SHRA SCT025 OVC040=

USA.gov is the U.S. government's official web portal to all federal, state and local government web resources and services.